Meteo Giornale » Osservazioni meteo Austria » Vienna-Schwechat

ore: 17:20 - Osservazioni Meteo Vienna-Schwechat
Lat. 48° 7' N Lon. 16° 34' E Alt. 183 metri s.l.m.

sereno Europe/Vienna

28 °C

Sereno

Temp. 24 Ore

15 °C

29 °C

Nord/NOvest

7.4 Km/h

Dew point 11 °C

Umidità 34 %

Visibilità  10 Km

Il sole sorge alle ore 05:48

Il sole tramonta alle ore 20:07

Data e Ora Cielo e Fenomeni T °C DP °C Um. % Pres. hPa Vis. km Vento km/h
Oggi h: 17:20 sereno Sereno 28 11 34 1016 10 N/NO 7.4
Oggi h: 16:50 sereno Sereno 29 11 32 1016 10 N 5.5
Oggi h: 16:20 sereno Sereno 27 11 36 1017 10 N 7.4
Oggi h: 15:50 sereno Sereno 28 10 32 1017 10 N 7.4
Oggi h: 15:20 sereno Sereno 27 11 36 1017 10 N/NO 14.8
Oggi h: 14:50 sereno Sereno 28 10 32 1017 10 N/NE 13
Oggi h: 14:20 sereno Sereno 28 11 34 1018 10 N 13
Oggi h: 13:50 sereno Sereno 27 11 36 1018 10 N 5.5
Oggi h: 13:20 sereno Sereno 27 11 36 1018 10 N/NE 13
Oggi h: 12:50 sereno Sereno 27 12 39 1018 10 N 11.1
Oggi h: 12:20 poco_nuvoloso Poco Nuvoloso 26 12 41 1019 10 N/NO 16.7
Oggi h: 11:50 poco_nuvoloso Poco Nuvoloso 26 12 41 1019 10 N 14.8
Oggi h: 11:20 poco_nuvoloso Poco Nuvoloso 25 13 47 1019 10 N/NO 13
Oggi h: 10:50 poco_nuvoloso Poco Nuvoloso 25 13 47 1019 10 N/NO 13
Oggi h: 10:20 poco_nuvoloso Poco Nuvoloso 24 14 53 1020 10 N 11.1
Oggi h: 09:50 poco_nuvoloso Poco Nuvoloso 23 14 56 1019 10 N/NE 9.3
Oggi h: 09:20 poco_nuvoloso Poco Nuvoloso 22 14 60 1020 10 N/NE 9.3
Oggi h: 08:50 sereno Sereno 21 14 64 1020 10 N 9.3
Oggi h: 08:20 sereno Sereno 20 14 68 1020 10 N/NO 11.1
Oggi h: 07:50 sereno Sereno 20 13 64 1020 10 N/NO 13
Oggi h: 07:20 sereno Sereno 18 14 77 1020 10 N/NO 7.4
Oggi h: 06:50 sereno Sereno 16 12 77 1020 10 N 5.5
Oggi h: 06:20 sereno Sereno 16 12 77 1019 10 N 5.5
Oggi h: 05:50 sereno Sereno 17 12 72 1019 10 NO 7.4
Oggi h: 05:20 sereno Sereno 16 11 72 1019 10 N 5.5
Oggi h: 04:50 sereno Sereno 15 11 76 1019 10 N 3.7
Oggi h: 04:20 sereno Sereno 16 11 72 1019 10 NO 7.4
Oggi h: 03:50 sereno Sereno 17 12 72 1019 10 N 5.5
Oggi h: 03:20 sereno Sereno 17 11 67 1019 10 N 1.8
Oggi h: 02:50 sereno Sereno 15 11 76 1019 10 N 1.8
Oggi h: 01:50 sereno Sereno 18 11 63 1019 10 N 5.5
Oggi h: 01:20 sereno Sereno 18 11 63 1019 10 N 5.5
Oggi h: 00:50 sereno Sereno 18 11 63 1019 10 N 5.5
Oggi h: 00:20 sereno Sereno 18 11 63 1019 10 N 11.1
Ieri h: 23:50 sereno Sereno 20 10 52 1019 10 N/NO 11.1
Ieri h: 23:20 sereno Sereno 20 10 52 1019 10 N/NO 9.3
Ieri h: 22:50 sereno Sereno 20 10 52 1019 10 N/NO 13
Ieri h: 22:20 sereno Sereno 21 11 52 1019 10 N/NO 11.1
Ieri h: 21:50 sereno Sereno 22 11 49 1019 10 N/NO 7.4
Ieri h: 21:20 sereno Sereno 22 10 46 1018 10 N 7.4
Ieri h: 20:50 sereno Sereno 24 10 41 1018 10 N/NO 11.1
Ieri h: 20:20 sereno Sereno 24 10 41 1017 10 N/NO 9.3
Ieri h: 19:50 sereno Sereno 24 10 41 1017 10 N/NO 11.1
Ieri h: 19:20 sereno Sereno 26 9 34 1017 10 N/NO 14.8
Ieri h: 18:50 sereno Sereno 26 10 36 1017 10 N/NO 18.5
Ieri h: 18:20 sereno Sereno 27 11 36 1017 10 N/NO 14.8
Ieri h: 17:50 sereno Sereno 27 11 36 1017 10 N/NO 16.7